createdAt,value
2023-03-26T00:00:55.813Z,6.93
2023-03-26T00:03:23.906Z,6.94
2023-03-26T00:06:03.857Z,6.95
2023-03-26T00:08:31.852Z,7.13
2023-03-26T00:11:01.008Z,7.07
2023-03-26T00:13:32.104Z,7.03
2023-03-26T00:16:00.264Z,7.02
2023-03-26T00:18:30.744Z,6.75
2023-03-26T00:20:58.859Z,6.77
2023-03-26T00:23:28.245Z,6.62
2023-03-26T00:25:56.989Z,6.67
2023-03-26T00:28:26.408Z,6.51
2023-03-26T00:31:00.691Z,6.67
2023-03-26T00:33:28.820Z,6.63
2023-03-26T00:36:02.459Z,6.51
2023-03-26T00:38:31.551Z,6.82
2023-03-26T00:41:05.854Z,6.70
2023-03-26T00:43:34.897Z,6.83
2023-03-26T00:46:04.000Z,6.84
2023-03-26T00:48:44.421Z,7.03
2023-03-26T00:51:15.334Z,7.01
2023-03-26T00:53:44.716Z,7.04
2023-03-26T00:56:13.098Z,7.08
2023-03-26T00:58:41.006Z,7.03
2023-03-26T01:01:14.288Z,7.08
2023-03-26T01:03:53.488Z,6.99
2023-03-26T01:06:32.760Z,6.84
2023-03-26T01:09:05.395Z,6.71
2023-03-26T01:11:35.684Z,6.66
2023-03-26T01:14:08.142Z,6.71
2023-03-26T01:16:41.487Z,6.68
2023-03-26T01:19:18.058Z,6.59
2023-03-26T01:21:47.339Z,6.62
2023-03-26T01:24:16.458Z,6.56
2023-03-26T01:26:55.702Z,6.47
2023-03-26T01:29:31.744Z,6.45
2023-03-26T01:32:10.435Z,6.51
2023-03-26T01:34:49.757Z,6.51
2023-03-26T01:37:24.965Z,6.39
2023-03-26T01:39:58.404Z,6.36
2023-03-26T01:42:36.832Z,6.19
2023-03-26T01:45:10.980Z,5.98
2023-03-26T01:47:40.620Z,6.08
2023-03-26T01:50:09.513Z,6.17
2023-03-26T01:52:37.700Z,6.12
2023-03-26T01:55:11.835Z,6.06
2023-03-26T01:57:55.123Z,6.26
2023-03-26T02:00:29.443Z,6.53
2023-03-26T02:03:17.540Z,6.71
2023-03-26T02:05:53.818Z,6.90
2023-03-26T02:08:25.662Z,7.03
2023-03-26T02:10:58.997Z,7.07
2023-03-26T02:13:27.411Z,7.09
2023-03-26T02:15:57.412Z,7.07
2023-03-26T02:18:25.640Z,7.13
2023-03-26T02:20:53.875Z,7.08
2023-03-26T02:23:21.785Z,7.11
2023-03-26T02:25:49.583Z,7.16
2023-03-26T02:28:19.230Z,7.18
2023-03-26T02:30:47.444Z,7.23
2023-03-26T02:33:17.362Z,7.20
2023-03-26T02:35:46.001Z,7.20
2023-03-26T02:38:14.975Z,7.25
2023-03-26T02:40:43.784Z,7.26
2023-03-26T02:43:11.410Z,7.31
2023-03-26T02:45:41.314Z,7.29
2023-03-26T02:48:28.852Z,7.29
2023-03-26T02:51:13.149Z,7.29
2023-03-26T02:53:51.252Z,7.28
2023-03-26T02:56:39.155Z,7.22
2023-03-26T02:59:18.205Z,7.26
2023-03-26T03:01:50.951Z,7.28
2023-03-26T03:04:20.548Z,7.35
2023-03-26T03:06:52.859Z,7.39
2023-03-26T03:09:21.129Z,7.39
2023-03-26T03:12:11.802Z,7.31
2023-03-26T03:14:40.877Z,7.35
2023-03-26T03:17:09.821Z,7.47
2023-03-26T03:19:38.185Z,7.48
2023-03-26T03:22:06.191Z,7.52
2023-03-26T03:24:38.767Z,7.54
2023-03-26T03:27:06.786Z,7.56
2023-03-26T03:29:36.099Z,7.57
2023-03-26T03:32:23.875Z,7.61
2023-03-26T03:34:55.173Z,7.68
2023-03-26T03:37:23.366Z,7.66
2023-03-26T03:39:54.757Z,7.73
2023-03-26T03:42:25.197Z,7.67
2023-03-26T03:44:55.572Z,7.81
2023-03-26T03:47:45.275Z,7.84
2023-03-26T03:50:15.292Z,7.90
2023-03-26T03:52:55.822Z,7.90
2023-03-26T03:55:24.161Z,7.89
2023-03-26T03:57:54.271Z,7.89
2023-03-26T04:00:24.869Z,7.39
2023-03-26T04:03:14.269Z,7.22
2023-03-26T04:05:43.652Z,7.02
2023-03-26T04:08:11.751Z,6.72
2023-03-26T04:10:53.063Z,6.59
2023-03-26T04:13:44.433Z,6.65
2023-03-26T04:16:31.786Z,6.58
2023-03-26T04:19:03.757Z,6.37
2023-03-26T04:21:32.043Z,6.33
2023-03-26T04:24:01.637Z,6.26
2023-03-26T04:26:51.064Z,6.28
2023-03-26T04:29:25.633Z,6.31
2023-03-26T04:31:58.738Z,6.29
2023-03-26T04:34:30.988Z,6.25
2023-03-26T04:37:16.648Z,6.25
2023-03-26T04:39:50.085Z,6.30
2023-03-26T04:42:41.799Z,6.37
2023-03-26T04:45:31.398Z,6.30
2023-03-26T04:47:59.230Z,6.32
2023-03-26T04:50:28.428Z,6.28
2023-03-26T04:52:58.256Z,6.23
2023-03-26T04:55:50.413Z,6.32
2023-03-26T04:58:33.004Z,6.37
2023-03-26T05:01:09.773Z,6.40
2023-03-26T05:03:45.575Z,6.33
2023-03-26T05:06:17.698Z,6.26
2023-03-26T05:08:45.390Z,6.31
2023-03-26T05:11:22.404Z,6.29
2023-03-26T05:13:50.425Z,6.41
2023-03-26T05:16:18.984Z,6.48
2023-03-26T05:19:13.366Z,6.53
2023-03-26T05:21:42.599Z,6.59
2023-03-26T05:24:10.223Z,6.60
2023-03-26T05:26:38.239Z,6.68
2023-03-26T05:29:05.956Z,6.70
2023-03-26T05:31:37.887Z,6.77
2023-03-26T05:34:06.702Z,6.79
2023-03-26T05:36:34.648Z,6.81
2023-03-26T05:39:10.231Z,6.85
2023-03-26T05:41:58.176Z,6.89
2023-03-26T05:44:34.967Z,6.83
2023-03-26T05:47:07.827Z,6.96
2023-03-26T05:49:35.564Z,6.88
2023-03-26T05:52:03.431Z,6.89
2023-03-26T05:54:58.245Z,7.03
2023-03-26T05:57:44.670Z,7.08
2023-03-26T06:00:33.774Z,7.17
2023-03-26T06:03:02.089Z,7.29
2023-03-26T06:05:58.188Z,7.41
2023-03-26T06:09:01.728Z,7.55
2023-03-26T06:11:33.526Z,7.64
2023-03-26T06:14:03.874Z,7.87
2023-03-26T06:16:32.526Z,7.93
2023-03-26T06:19:21.297Z,7.98
2023-03-26T06:22:12.762Z,8.26
2023-03-26T06:25:08.032Z,8.28
2023-03-26T06:27:44.654Z,8.21
2023-03-26T06:30:38.572Z,8.34
2023-03-26T06:33:29.546Z,8.38
2023-03-26T06:35:57.741Z,8.40
2023-03-26T06:38:26.272Z,8.36
2023-03-26T06:40:54.384Z,8.33
2023-03-26T06:43:42.178Z,8.27
2023-03-26T06:46:36.263Z,8.22
2023-03-26T06:49:44.916Z,8.25
2023-03-26T06:52:36.967Z,8.24
2023-03-26T06:55:15.376Z,8.15
2023-03-26T06:58:11.932Z,8.15
2023-03-26T07:01:01.048Z,8.07
2023-03-26T07:03:47.578Z,8.08
2023-03-26T07:06:33.906Z,8.06
2023-03-26T07:09:20.435Z,8.17
2023-03-26T07:12:07.376Z,8.21
2023-03-26T07:15:11.268Z,8.31
2023-03-26T07:18:14.184Z,8.32
2023-03-26T07:20:45.299Z,8.36
2023-03-26T07:23:15.626Z,8.41
2023-03-26T07:25:43.983Z,8.45
2023-03-26T07:28:39.287Z,8.50
2023-03-26T07:31:42.078Z,8.55
2023-03-26T07:34:42.159Z,8.62
2023-03-26T07:37:42.318Z,8.67
2023-03-26T07:40:22.856Z,8.71
2023-03-26T07:43:41.805Z,8.75
2023-03-26T07:46:12.344Z,8.77
2023-03-26T07:48:58.262Z,8.81
2023-03-26T07:51:43.628Z,8.78
2023-03-26T07:54:17.949Z,8.79
2023-03-26T07:57:09.563Z,8.82
2023-03-26T07:59:50.267Z,8.90
2023-03-26T08:02:56.701Z,8.95
2023-03-26T08:05:51.398Z,8.97
2023-03-26T08:08:35.929Z,9.00
2023-03-26T08:11:35.577Z,9.05
2023-03-26T08:14:17.930Z,9.07
2023-03-26T08:16:54.093Z,9.08
2023-03-26T08:19:41.138Z,9.09
2023-03-26T08:22:16.750Z,9.10
2023-03-26T08:25:01.278Z,9.02
2023-03-26T08:27:37.730Z,8.93
2023-03-26T08:30:15.401Z,8.84
2023-03-26T08:32:43.514Z,8.87
2023-03-26T08:35:13.507Z,8.92
2023-03-26T08:37:41.197Z,8.95
2023-03-26T08:40:12.822Z,8.89
2023-03-26T08:43:07.941Z,8.86
2023-03-26T08:46:08.221Z,8.82
2023-03-26T08:48:52.715Z,8.82
2023-03-26T08:51:45.011Z,8.84
2023-03-26T08:54:47.660Z,8.81
2023-03-26T08:57:51.507Z,8.83
2023-03-26T09:00:43.603Z,8.77
2023-03-26T09:03:41.339Z,8.72
2023-03-26T09:06:33.230Z,8.61
2023-03-26T09:09:41.645Z,8.60
2023-03-26T09:12:35.301Z,8.46
2023-03-26T09:15:34.877Z,8.56
2023-03-26T09:18:28.594Z,8.50
2023-03-26T09:21:21.551Z,8.33
2023-03-26T09:24:27.527Z,8.33
2023-03-26T09:27:08.166Z,8.23
2023-03-26T09:30:08.738Z,8.44
2023-03-26T09:32:57.421Z,8.63
2023-03-26T09:35:52.123Z,8.63
2023-03-26T09:38:37.492Z,8.48
2023-03-26T09:41:14.812Z,8.62
2023-03-26T09:44:10.261Z,8.69
2023-03-26T09:46:47.190Z,8.80
2023-03-26T09:49:38.977Z,8.84
2023-03-26T09:52:21.087Z,9.06
2023-03-26T09:55:10.958Z,9.13
2023-03-26T09:57:58.413Z,9.20
2023-03-26T10:00:40.073Z,9.31
2023-03-26T10:03:26.756Z,9.29
2023-03-26T10:06:08.440Z,9.20
2023-03-26T10:08:47.316Z,9.08
2023-03-26T10:11:23.572Z,8.93
2023-03-26T10:14:04.726Z,9.24
2023-03-26T10:16:42.885Z,9.04
2023-03-26T10:19:29.443Z,8.72
2023-03-26T10:22:09.573Z,8.75
2023-03-26T10:24:59.452Z,8.57
2023-03-26T10:27:44.695Z,8.79
2023-03-26T10:30:44.001Z,8.87
2023-03-26T10:33:25.024Z,8.89
2023-03-26T10:36:07.357Z,9.16
2023-03-26T10:38:54.551Z,9.08
2023-03-26T10:41:30.225Z,8.93
2023-03-26T10:44:22.766Z,8.95
2023-03-26T10:47:12.789Z,8.95
2023-03-26T10:50:23.070Z,9.10
2023-03-26T10:52:56.883Z,9.27
2023-03-26T10:55:32.785Z,9.35
2023-03-26T10:58:05.360Z,9.33
2023-03-26T11:00:39.138Z,9.60
2023-03-26T11:03:27.326Z,9.81
2023-03-26T11:06:04.938Z,9.81
2023-03-26T11:08:43.661Z,9.75
2023-03-26T11:11:21.169Z,9.51
2023-03-26T11:13:59.660Z,9.56
2023-03-26T11:16:36.964Z,9.26
2023-03-26T11:19:12.008Z,9.20
2023-03-26T11:21:49.954Z,9.03
2023-03-26T11:24:34.415Z,9.22
2023-03-26T11:27:14.966Z,9.55
2023-03-26T11:29:52.163Z,9.80
2023-03-26T11:32:25.714Z,9.95
2023-03-26T11:35:01.721Z,10.45
2023-03-26T11:37:35.297Z,10.91
2023-03-26T11:40:13.716Z,10.67
2023-03-26T11:42:43.335Z,10.80
2023-03-26T11:45:17.317Z,10.51
2023-03-26T11:47:50.103Z,10.42
2023-03-26T11:50:22.092Z,10.98
2023-03-26T11:52:52.389Z,10.98
2023-03-26T11:55:23.745Z,11.28
2023-03-26T11:57:56.506Z,11.03
2023-03-26T12:00:27.420Z,10.93
2023-03-26T12:02:58.149Z,10.67
2023-03-26T12:05:33.404Z,10.80
2023-03-26T12:08:03.757Z,10.76
2023-03-26T12:10:37.652Z,10.95
2023-03-26T12:13:27.628Z,10.73
2023-03-26T12:15:58.975Z,10.87
2023-03-26T12:18:28.797Z,10.64
2023-03-26T12:21:05.420Z,10.81
2023-03-26T12:23:57.174Z,10.79
2023-03-26T12:26:42.123Z,10.92
2023-03-26T12:29:12.869Z,10.56
2023-03-26T12:31:51.473Z,10.89
2023-03-26T12:34:21.539Z,10.67
2023-03-26T12:36:53.037Z,10.60
2023-03-26T12:40:08.793Z,10.51
2023-03-26T12:44:44.588Z,10.30
2023-03-26T12:45:23.324Z,10.46
2023-03-26T12:47:58.717Z,10.50
2023-03-26T12:50:42.810Z,10.63
2023-03-26T12:53:38.782Z,10.51
2023-03-26T12:56:13.341Z,10.76
2023-03-26T12:59:00.714Z,11.14
2023-03-26T13:01:42.794Z,10.56
2023-03-26T13:04:28.789Z,10.66
2023-03-26T13:07:02.737Z,10.62
2023-03-26T13:09:43.239Z,10.42
2023-03-26T13:12:26.427Z,10.60
2023-03-26T13:15:17.675Z,10.44
2023-03-26T13:17:57.901Z,10.43
2023-03-26T13:20:32.937Z,10.48
2023-03-26T13:23:08.679Z,10.06
2023-03-26T13:25:44.442Z,9.29
2023-03-26T13:28:25.900Z,9.50
2023-03-26T13:31:02.920Z,9.79
2023-03-26T13:33:40.965Z,9.87
2023-03-26T13:36:22.388Z,10.14
2023-03-26T13:39:16.275Z,10.70
2023-03-26T13:42:01.213Z,11.15
2023-03-26T13:44:39.194Z,11.22
2023-03-26T13:47:15.212Z,11.42
2023-03-26T13:49:53.310Z,11.90
2023-03-26T13:52:27.140Z,12.30
2023-03-26T13:55:05.421Z,12.53
2023-03-26T13:57:37.499Z,12.51
2023-03-26T14:00:13.143Z,12.63
2023-03-26T14:02:44.025Z,12.47
2023-03-26T14:05:17.858Z,12.29
2023-03-26T14:07:50.679Z,12.48
2023-03-26T14:10:23.210Z,12.49
2023-03-26T14:12:58.022Z,12.46
2023-03-26T14:15:29.378Z,12.41
2023-03-26T14:18:07.727Z,12.23
2023-03-26T14:21:01.705Z,12.35
2023-03-26T14:23:43.663Z,12.18
2023-03-26T14:26:27.427Z,12.37
2023-03-26T14:29:29.061Z,12.80
2023-03-26T14:32:11.545Z,12.52
2023-03-26T14:35:01.061Z,12.19
2023-03-26T14:37:43.590Z,12.21
2023-03-26T14:40:41.067Z,12.46
2023-03-26T14:43:39.453Z,12.17
2023-03-26T14:46:18.959Z,12.04
2023-03-26T14:49:23.819Z,12.17
2023-03-26T14:52:10.438Z,12.43
2023-03-26T14:54:42.986Z,12.27
2023-03-26T14:57:48.519Z,12.16
2023-03-26T15:01:04.714Z,12.19
2023-03-26T15:04:29.509Z,12.09
2023-03-26T15:07:31.204Z,12.04
2023-03-26T15:10:49.664Z,12.33
2023-03-26T15:13:41.855Z,12.92
2023-03-26T15:16:28.098Z,13.64
2023-03-26T15:19:25.725Z,13.71
2023-03-26T15:22:38.201Z,13.98
2023-03-26T15:25:45.315Z,14.27
2023-03-26T15:29:13.026Z,14.23
2023-03-26T15:32:15.278Z,14.33
2023-03-26T15:35:12.466Z,14.43
2023-03-26T15:38:04.134Z,14.22
2023-03-26T15:41:03.741Z,14.35
2023-03-26T15:44:23.363Z,13.34
2023-03-26T15:47:00.515Z,12.88
2023-03-26T15:49:41.083Z,12.28
2023-03-26T15:52:20.107Z,11.93
2023-03-26T15:54:54.647Z,11.31
2023-03-26T15:57:31.889Z,10.82
2023-03-26T16:00:22.484Z,10.96
2023-03-26T16:03:20.645Z,10.64
2023-03-26T16:06:10.695Z,10.89
2023-03-26T16:08:46.900Z,11.00
2023-03-26T16:11:16.516Z,10.92
2023-03-26T16:13:50.547Z,11.01
2023-03-26T16:16:23.196Z,11.19
2023-03-26T16:18:58.289Z,10.99
2023-03-26T16:21:56.673Z,10.85
2023-03-26T16:24:31.860Z,10.94
2023-03-26T16:27:23.752Z,10.82
2023-03-26T16:30:15.266Z,10.61
2023-03-26T16:32:45.890Z,10.60
2023-03-26T16:35:42.230Z,10.54
2023-03-26T16:38:15.932Z,10.31
2023-03-26T16:41:05.040Z,10.23
2023-03-26T16:43:47.755Z,10.08
2023-03-26T16:46:28.166Z,10.02
2023-03-26T16:49:01.120Z,10.08
2023-03-26T16:51:53.459Z,9.98
2023-03-26T16:54:26.157Z,9.85
2023-03-26T16:57:01.037Z,9.86
2023-03-26T17:00:07.772Z,9.49
2023-03-26T17:02:51.930Z,9.49
2023-03-26T17:05:25.434Z,9.23
2023-03-26T17:08:02.131Z,8.78
2023-03-26T17:10:36.495Z,8.25
2023-03-26T17:13:08.746Z,8.30
2023-03-26T17:15:47.179Z,8.20
2023-03-26T17:18:29.394Z,7.83
2023-03-26T17:21:03.280Z,7.89
2023-03-26T17:23:42.161Z,7.82
2023-03-26T17:26:23.940Z,7.88
2023-03-26T17:29:09.769Z,7.82
2023-03-26T17:31:43.843Z,7.57
2023-03-26T17:34:34.961Z,7.64
2023-03-26T17:37:05.332Z,7.67
2023-03-26T17:40:12.612Z,7.56
2023-03-26T17:43:06.299Z,7.37
2023-03-26T17:45:37.550Z,7.28
2023-03-26T17:48:11.193Z,7.22
2023-03-26T17:50:46.479Z,7.34
2023-03-26T17:53:20.975Z,7.20
2023-03-26T17:55:51.186Z,6.99
2023-03-26T17:58:27.929Z,7.26
2023-03-26T18:01:05.182Z,7.08
2023-03-26T18:03:37.222Z,6.98
2023-03-26T18:06:09.307Z,6.91
2023-03-26T18:08:46.299Z,6.82
2023-03-26T18:11:25.516Z,6.92
2023-03-26T18:14:19.401Z,6.92
2023-03-26T18:16:50.096Z,6.70
2023-03-26T18:19:19.421Z,6.85
2023-03-26T18:21:50.227Z,6.71
2023-03-26T18:24:22.434Z,6.69
2023-03-26T18:26:54.903Z,6.46
2023-03-26T18:29:25.906Z,6.60
2023-03-26T18:32:00.638Z,6.50
2023-03-26T18:34:31.548Z,6.56
2023-03-26T18:37:10.984Z,6.44
2023-03-26T18:39:38.737Z,6.26
2023-03-26T18:42:07.154Z,6.21
2023-03-26T18:44:37.539Z,6.06
2023-03-26T18:47:07.053Z,6.20
2023-03-26T18:49:34.824Z,6.22
2023-03-26T18:52:02.804Z,6.27
2023-03-26T18:54:35.908Z,6.11
2023-03-26T18:57:15.291Z,6.22
2023-03-26T18:59:45.424Z,6.22
2023-03-26T19:02:16.485Z,6.27
2023-03-26T19:04:47.102Z,6.23
2023-03-26T19:07:18.169Z,6.47
2023-03-26T19:09:46.204Z,6.39
2023-03-26T19:12:18.881Z,6.32
2023-03-26T19:14:59.580Z,6.38
2023-03-26T19:17:30.922Z,6.30
2023-03-26T19:19:58.798Z,6.40
2023-03-26T19:22:27.309Z,6.43
2023-03-26T19:24:59.156Z,6.44
2023-03-26T19:27:27.337Z,6.37
2023-03-26T19:29:55.105Z,6.48
2023-03-26T19:32:32.819Z,6.43
2023-03-26T19:35:02.063Z,6.47
2023-03-26T19:37:32.490Z,6.43
2023-03-26T19:40:14.175Z,6.41
2023-03-26T19:42:44.977Z,6.37
2023-03-26T19:45:17.497Z,6.50
2023-03-26T19:48:00.094Z,6.43
2023-03-26T19:50:36.604Z,6.24
2023-03-26T19:53:17.692Z,6.19
2023-03-26T19:55:54.128Z,6.16
2023-03-26T19:58:21.796Z,6.11
2023-03-26T20:00:49.456Z,5.89
2023-03-26T20:03:25.385Z,5.61
2023-03-26T20:05:53.108Z,5.61
2023-03-26T20:08:27.288Z,5.62
2023-03-26T20:10:56.303Z,5.65
2023-03-26T20:13:24.261Z,5.62
2023-03-26T20:16:05.612Z,5.75
2023-03-26T20:18:35.401Z,5.80
2023-03-26T20:21:03.259Z,5.76
2023-03-26T20:23:30.884Z,5.58
2023-03-26T20:25:58.658Z,5.70
2023-03-26T20:28:26.282Z,5.55
2023-03-26T20:30:54.521Z,5.60
2023-03-26T20:33:25.396Z,5.59
2023-03-26T20:35:55.614Z,5.62
2023-03-26T20:38:36.729Z,5.63
2023-03-26T20:41:07.225Z,5.66
2023-03-26T20:43:34.858Z,5.67
2023-03-26T20:46:03.908Z,5.58
2023-03-26T20:48:31.601Z,5.61
2023-03-26T20:51:01.478Z,5.37
2023-03-26T20:53:30.411Z,5.45
2023-03-26T20:55:58.018Z,5.52
2023-03-26T20:58:31.542Z,5.52
2023-03-26T21:01:01.058Z,5.51
2023-03-26T21:03:28.992Z,5.51
2023-03-26T21:06:02.016Z,5.42
2023-03-26T21:08:35.461Z,5.52
2023-03-26T21:11:04.782Z,5.69
2023-03-26T21:13:38.646Z,5.40
2023-03-26T21:16:08.039Z,5.49
2023-03-26T21:18:36.951Z,5.38
2023-03-26T21:21:23.237Z,5.51
2023-03-26T21:23:59.386Z,5.51
2023-03-26T21:26:33.602Z,5.51
2023-03-26T21:29:09.488Z,5.33
2023-03-26T21:31:38.936Z,5.23
2023-03-26T21:34:08.304Z,5.06
2023-03-26T21:36:38.078Z,5.34
2023-03-26T21:39:07.142Z,5.35
2023-03-26T21:41:44.003Z,5.15
2023-03-26T21:44:12.225Z,5.24
2023-03-26T21:46:42.556Z,5.19
2023-03-26T21:49:11.015Z,5.08
2023-03-26T21:51:41.137Z,5.03
2023-03-26T21:54:22.262Z,4.80
2023-03-26T21:57:00.639Z,4.97
2023-03-26T21:59:36.679Z,4.97
2023-03-26T22:02:11.106Z,5.03
2023-03-26T22:04:46.318Z,5.09
2023-03-26T22:07:18.822Z,5.16
2023-03-26T22:09:47.520Z,5.16
2023-03-26T22:12:15.116Z,5.13
2023-03-26T22:14:42.857Z,5.23
2023-03-26T22:17:10.516Z,5.31
2023-03-26T22:19:38.703Z,5.33
2023-03-26T22:22:08.027Z,5.51
2023-03-26T22:24:37.440Z,5.49
2023-03-26T22:27:05.561Z,5.39
2023-03-26T22:29:33.494Z,5.29
2023-03-26T22:32:01.237Z,5.44
2023-03-26T22:34:29.327Z,5.41
2023-03-26T22:36:57.271Z,5.31
2023-03-26T22:39:24.994Z,5.31
2023-03-26T22:41:54.521Z,5.42
2023-03-26T22:44:22.134Z,5.34
2023-03-26T22:46:51.573Z,5.19
2023-03-26T22:49:19.745Z,5.27
2023-03-26T22:51:47.708Z,5.33
2023-03-26T22:54:15.470Z,5.41
2023-03-26T22:56:44.121Z,5.49
2023-03-26T22:59:13.106Z,5.61
2023-03-26T23:01:41.425Z,5.49
2023-03-26T23:04:09.155Z,5.62
2023-03-26T23:06:36.825Z,5.59
2023-03-26T23:09:06.997Z,5.58
2023-03-26T23:11:34.885Z,5.44
2023-03-26T23:14:02.911Z,5.53
2023-03-26T23:16:32.823Z,5.58
2023-03-26T23:19:00.699Z,5.71
2023-03-26T23:21:28.495Z,5.51
2023-03-26T23:23:56.133Z,5.51
2023-03-26T23:26:24.110Z,5.60
2023-03-26T23:28:52.076Z,5.72
2023-03-26T23:31:19.845Z,5.60
2023-03-26T23:33:50.198Z,5.29
2023-03-26T23:36:20.052Z,5.40
2023-03-26T23:38:49.188Z,5.47
2023-03-26T23:41:18.823Z,5.34
2023-03-26T23:43:53.776Z,5.38
2023-03-26T23:46:23.604Z,5.40
2023-03-26T23:48:53.358Z,5.29
2023-03-26T23:51:22.402Z,5.31
2023-03-26T23:53:50.319Z,5.42
2023-03-26T23:56:18.327Z,5.46
2023-03-26T23:58:46.089Z,5.41
